Witts, Indiana
Current Conditions -  °F | °C
As of 3:35 AM on Sunday 21 Dec 2014 (Local Time) from KI67 Reporting Station
Clear Clear  
Wind Chill: 25°   Ceiling: Unl
Heat Index: 25°   Visibility: 4mi
Dew Point: 23°   Wind: 3mph
Humidity: 93%   Direction: 50°NE
Pressure: 30.31"   Gusts: NA
Location:  39.6086°N, 84.9137°W
Report Text: KI67 210835Z AUTO 05003KT 4SM CLR M04/M05 A3031 RMK AO1
Loading
Personal Weather Stations






























Interactive Weather Map New forecast layout! Learn more

10-Day Weather Forecast

Advertisements
Track Severe Weather on mobile